createdAt,value
2019-01-11T00:01:23.595Z,1.22
2019-01-11T00:03:54.305Z,1.19
2019-01-11T00:06:25.261Z,1.16
2019-01-11T00:08:55.907Z,1.17
2019-01-11T00:11:26.678Z,1.19
2019-01-11T00:13:57.566Z,1.22
2019-01-11T00:16:28.203Z,1.23
2019-01-11T00:18:58.913Z,1.21
2019-01-11T00:21:29.496Z,1.21
2019-01-11T00:24:00.199Z,1.25
2019-01-11T00:26:34.186Z,1.27
2019-01-11T00:29:05.215Z,1.27
2019-01-11T00:31:37.413Z,1.30
2019-01-11T00:34:08.000Z,1.30
2019-01-11T00:36:41.552Z,1.30
2019-01-11T00:39:12.174Z,1.32
2019-01-11T00:41:42.864Z,1.32
2019-01-11T00:44:13.429Z,1.34
2019-01-11T00:46:44.137Z,1.35
2019-01-11T00:49:14.735Z,1.36
2019-01-11T00:51:45.239Z,1.37
2019-01-11T00:54:15.859Z,1.38
2019-01-11T00:56:46.419Z,1.39
2019-01-11T00:59:17.252Z,1.37
2019-01-11T01:01:47.894Z,1.38
2019-01-11T01:04:18.456Z,1.39
2019-01-11T01:06:49.060Z,1.37
2019-01-11T01:09:19.682Z,1.33
2019-01-11T01:11:50.738Z,1.35
2019-01-11T01:14:21.521Z,1.37
2019-01-11T01:16:52.101Z,1.36
2019-01-11T01:19:25.596Z,1.35
2019-01-11T01:21:57.675Z,1.36
2019-01-11T01:24:28.311Z,1.37
2019-01-11T01:26:58.889Z,1.37
2019-01-11T01:29:29.545Z,1.40
2019-01-11T01:32:00.715Z,1.40
2019-01-11T01:34:31.290Z,1.35
2019-01-11T01:37:01.902Z,1.36
2019-01-11T01:39:32.463Z,1.37
2019-01-11T01:42:03.071Z,1.39
2019-01-11T01:44:33.627Z,1.41
2019-01-11T01:47:04.167Z,1.42
2019-01-11T01:49:34.730Z,1.43
2019-01-11T01:52:05.558Z,1.44
2019-01-11T01:54:36.250Z,1.45
2019-01-11T01:57:06.814Z,1.44
2019-01-11T01:59:37.339Z,1.45
2019-01-11T02:02:08.197Z,1.46
2019-01-11T02:04:38.803Z,1.49
2019-01-11T02:07:09.572Z,1.49
2019-01-11T02:09:40.102Z,1.47
2019-01-11T02:12:10.620Z,1.44
2019-01-11T02:14:42.332Z,1.42
2019-01-11T02:17:13.941Z,1.43
2019-01-11T02:19:44.557Z,1.38
2019-01-11T02:22:15.400Z,1.38
2019-01-11T02:24:46.021Z,1.40
2019-01-11T02:27:16.619Z,1.38
2019-01-11T02:29:47.198Z,1.40
2019-01-11T02:32:17.803Z,1.37
2019-01-11T02:34:49.396Z,1.37
2019-01-11T02:37:22.697Z,1.36
2019-01-11T02:39:53.435Z,1.33
2019-01-11T02:42:24.050Z,1.31
2019-01-11T02:44:54.679Z,1.28
2019-01-11T02:47:25.223Z,1.25
2019-01-11T02:49:55.775Z,1.26
2019-01-11T02:52:26.327Z,1.27
2019-01-11T02:54:57.026Z,1.26
2019-01-11T02:57:27.513Z,1.24
2019-01-11T02:59:58.061Z,1.26
2019-01-11T03:02:28.656Z,1.26
2019-01-11T03:04:59.570Z,1.29
2019-01-11T03:07:30.180Z,1.30
2019-01-11T03:10:00.713Z,1.27
2019-01-11T03:12:31.442Z,1.28
2019-01-11T03:15:02.124Z,1.28
2019-01-11T03:17:32.704Z,1.29
2019-01-11T03:20:06.304Z,1.30
2019-01-11T03:22:37.047Z,1.27
2019-01-11T03:25:08.309Z,1.26
2019-01-11T03:27:38.980Z,1.29
2019-01-11T03:30:16.782Z,1.28
2019-01-11T03:32:47.388Z,1.29
2019-01-11T03:35:22.614Z,1.30
2019-01-11T03:37:54.877Z,1.33
2019-01-11T03:40:27.360Z,1.36
2019-01-11T03:42:58.015Z,1.39
2019-01-11T03:45:30.069Z,1.39
2019-01-11T03:48:00.701Z,1.41
2019-01-11T03:50:33.827Z,1.41
2019-01-11T03:53:04.464Z,1.41
2019-01-11T03:55:35.042Z,1.41
2019-01-11T03:58:05.768Z,1.44
2019-01-11T04:00:36.534Z,1.40
2019-01-11T04:03:07.215Z,1.39
2019-01-11T04:05:40.698Z,1.41
2019-01-11T04:08:11.286Z,1.41
2019-01-11T04:10:41.794Z,1.44
2019-01-11T04:13:12.375Z,1.47
2019-01-11T04:15:42.999Z,1.45
2019-01-11T04:18:29.967Z,1.42
2019-01-11T04:21:00.542Z,1.46
2019-01-11T04:23:31.149Z,1.48
2019-01-11T04:26:01.698Z,1.51
2019-01-11T04:28:32.221Z,1.53
2019-01-11T04:31:02.876Z,1.52
2019-01-11T04:33:33.491Z,1.53
2019-01-11T04:36:04.127Z,1.51
2019-01-11T04:38:36.768Z,1.45
2019-01-11T04:41:07.554Z,1.49
2019-01-11T04:43:38.144Z,1.49
2019-01-11T04:46:09.320Z,1.51
2019-01-11T04:48:40.169Z,1.53
2019-01-11T04:51:11.093Z,1.47
2019-01-11T04:53:41.724Z,1.47
2019-01-11T04:56:12.451Z,1.46
2019-01-11T04:58:42.999Z,1.47
2019-01-11T05:01:13.788Z,1.51
2019-01-11T05:03:44.613Z,1.47
2019-01-11T05:06:15.305Z,1.50
2019-01-11T05:08:49.349Z,1.46
2019-01-11T05:11:22.098Z,1.40
2019-01-11T05:13:59.961Z,1.36
2019-01-11T05:16:31.222Z,1.40
2019-01-11T05:19:03.723Z,1.33
2019-01-11T05:21:34.678Z,1.39
2019-01-11T05:24:05.833Z,1.36
2019-01-11T05:26:36.634Z,1.37
2019-01-11T05:29:07.355Z,1.41
2019-01-11T05:31:37.931Z,1.46
2019-01-11T05:34:08.505Z,1.47
2019-01-11T05:36:39.166Z,1.54
2019-01-11T05:39:10.880Z,1.42
2019-01-11T05:41:41.534Z,1.42
2019-01-11T05:44:12.203Z,1.43
2019-01-11T05:46:42.750Z,1.47
2019-01-11T05:49:13.296Z,1.44
2019-01-11T05:51:44.012Z,1.45
2019-01-11T05:54:16.394Z,1.44
2019-01-11T05:56:47.098Z,1.46
2019-01-11T05:59:17.648Z,1.49
2019-01-11T06:01:50.981Z,1.53
2019-01-11T06:04:43.501Z,1.53
2019-01-11T06:07:22.655Z,1.53
2019-01-11T06:09:53.264Z,1.53
2019-01-11T06:12:23.904Z,1.52
2019-01-11T06:14:54.522Z,1.52
2019-01-11T06:17:25.176Z,1.50
2019-01-11T06:19:55.768Z,1.54
2019-01-11T06:22:28.079Z,1.56
2019-01-11T06:24:58.592Z,1.58
2019-01-11T06:27:29.269Z,1.58
2019-01-11T06:29:59.842Z,1.61
2019-01-11T06:32:30.433Z,1.58
2019-01-11T06:35:00.973Z,1.58
2019-01-11T06:37:31.602Z,1.57
2019-01-11T06:40:02.159Z,1.58
2019-01-11T06:42:32.770Z,1.58
2019-01-11T06:45:03.297Z,1.59
2019-01-11T06:47:33.871Z,1.58
2019-01-11T06:50:05.702Z,1.59
2019-01-11T06:52:36.242Z,1.61
2019-01-11T06:55:07.374Z,1.62
2019-01-11T06:57:37.940Z,1.62
2019-01-11T07:00:13.078Z,1.60
2019-01-11T07:02:44.331Z,1.62
2019-01-11T07:05:14.925Z,1.63
2019-01-11T07:07:45.511Z,1.63
2019-01-11T07:10:19.193Z,1.67
2019-01-11T07:12:49.788Z,1.66
2019-01-11T07:15:20.336Z,1.65
2019-01-11T07:17:50.950Z,1.64
2019-01-11T07:20:21.519Z,1.64
2019-01-11T07:22:52.080Z,1.67
2019-01-11T07:25:22.654Z,1.70
2019-01-11T07:28:01.463Z,1.69
2019-01-11T07:30:41.809Z,1.60
2019-01-11T07:33:15.265Z,1.59
2019-01-11T07:35:51.709Z,1.66
2019-01-11T07:38:22.660Z,1.67
2019-01-11T07:40:53.229Z,1.65
2019-01-11T07:43:23.834Z,1.62
2019-01-11T07:45:54.425Z,1.58
2019-01-11T07:48:26.102Z,1.62
2019-01-11T07:50:56.594Z,1.63
2019-01-11T07:53:27.327Z,1.62
2019-01-11T07:55:57.890Z,1.63
2019-01-11T07:58:28.452Z,1.69
2019-01-11T08:00:59.045Z,1.70
2019-01-11T08:03:29.616Z,1.71
2019-01-11T08:06:00.169Z,1.73
2019-01-11T08:08:33.685Z,1.76
2019-01-11T08:11:04.285Z,1.78
2019-01-11T08:13:34.795Z,1.77
2019-01-11T08:16:05.355Z,1.82
2019-01-11T08:18:37.555Z,1.83
2019-01-11T08:21:08.113Z,1.83
2019-01-11T08:23:38.707Z,1.88
2019-01-11T08:26:09.202Z,1.87
2019-01-11T08:28:40.010Z,1.88
2019-01-11T08:31:10.580Z,1.88
2019-01-11T08:33:41.205Z,1.92
2019-01-11T08:36:11.763Z,1.93
2019-01-11T08:38:42.283Z,1.92
2019-01-11T08:41:12.846Z,1.92
2019-01-11T08:43:43.499Z,1.86
2019-01-11T08:46:14.062Z,1.89
2019-01-11T08:48:45.111Z,1.86
2019-01-11T08:51:18.938Z,1.82
2019-01-11T08:53:49.531Z,1.81
2019-01-11T08:56:20.192Z,1.86
2019-01-11T08:58:50.823Z,1.87
2019-01-11T09:01:21.322Z,1.92
2019-01-11T09:03:51.972Z,1.97
2019-01-11T09:06:22.784Z,1.95
2019-01-11T09:08:53.371Z,1.96
2019-01-11T09:11:23.916Z,1.95
2019-01-11T09:13:54.473Z,1.92
2019-01-11T09:16:25.012Z,1.94
2019-01-11T09:18:57.870Z,1.91
2019-01-11T09:21:28.447Z,1.95
2019-01-11T09:23:59.077Z,1.99
2019-01-11T09:26:29.619Z,1.93
2019-01-11T09:29:00.560Z,2.00
2019-01-11T09:31:31.129Z,1.96
2019-01-11T09:34:01.689Z,2.03
2019-01-11T09:36:32.250Z,2.03
2019-01-11T09:39:03.461Z,2.02
2019-01-11T09:41:34.058Z,1.99
2019-01-11T09:44:04.662Z,1.96
2019-01-11T09:46:35.218Z,1.94
2019-01-11T09:49:05.896Z,1.99
2019-01-11T09:51:36.462Z,2.03
2019-01-11T09:54:07.276Z,2.09
2019-01-11T09:56:39.308Z,2.10
2019-01-11T09:59:09.994Z,2.11
2019-01-11T10:01:40.573Z,2.06
2019-01-11T10:04:15.054Z,2.04
2019-01-11T10:06:55.536Z,2.08
2019-01-11T10:09:26.133Z,2.09
2019-01-11T10:11:56.680Z,2.16
2019-01-11T10:14:27.306Z,2.12
2019-01-11T10:16:57.836Z,2.11
2019-01-11T10:19:28.411Z,2.08
2019-01-11T10:21:59.086Z,2.10
2019-01-11T10:24:29.659Z,2.11
2019-01-11T10:27:00.147Z,2.12
2019-01-11T10:29:30.699Z,2.15
2019-01-11T10:32:01.315Z,2.07
2019-01-11T10:34:31.855Z,2.07
2019-01-11T10:37:02.408Z,2.04
2019-01-11T10:39:33.012Z,2.03
2019-01-11T10:42:06.821Z,2.06
2019-01-11T10:44:37.402Z,2.07
2019-01-11T10:47:07.908Z,2.11
2019-01-11T10:49:38.470Z,2.18
2019-01-11T10:52:09.050Z,2.17
2019-01-11T10:54:43.585Z,2.22
2019-01-11T10:57:14.214Z,2.18
2019-01-11T10:59:44.794Z,2.15
2019-01-11T11:02:15.356Z,2.21
2019-01-11T11:04:45.938Z,2.21
2019-01-11T11:07:17.867Z,2.26
2019-01-11T11:09:48.457Z,2.28
2019-01-11T11:12:18.976Z,2.32
2019-01-11T11:14:51.276Z,2.36
2019-01-11T11:17:21.910Z,2.43
2019-01-11T11:19:52.685Z,2.45
2019-01-11T11:22:23.230Z,2.45
2019-01-11T11:24:53.802Z,2.45
2019-01-11T11:27:24.403Z,2.44
2019-01-11T11:29:54.978Z,2.46
2019-01-11T11:32:36.840Z,2.48
2019-01-11T11:35:07.758Z,2.51
2019-01-11T11:37:38.274Z,2.52
2019-01-11T11:40:09.894Z,2.53
2019-01-11T11:42:40.453Z,2.57
2019-01-11T11:45:12.240Z,2.56
2019-01-11T11:47:42.940Z,2.61
2019-01-11T11:50:13.736Z,2.60
2019-01-11T11:52:44.269Z,2.52
2019-01-11T11:55:14.905Z,2.58
2019-01-11T11:57:45.559Z,2.63
2019-01-11T12:00:22.753Z,2.70
2019-01-11T12:02:53.385Z,2.72
2019-01-11T12:05:23.954Z,2.66
2019-01-11T12:07:54.546Z,2.74
2019-01-11T12:10:25.119Z,2.71
2019-01-11T12:12:55.654Z,2.72
2019-01-11T12:15:26.234Z,2.72
2019-01-11T12:17:56.739Z,2.74
2019-01-11T12:20:40.547Z,2.77
2019-01-11T12:23:11.205Z,2.81
2019-01-11T12:25:41.777Z,2.80
2019-01-11T12:28:12.378Z,2.80
2019-01-11T12:30:42.952Z,2.80
2019-01-11T12:33:13.471Z,2.77
2019-01-11T12:35:44.082Z,2.78
2019-01-11T12:38:14.647Z,2.81
2019-01-11T12:40:45.189Z,2.83
2019-01-11T12:43:15.763Z,2.88
2019-01-11T12:45:46.329Z,2.89
2019-01-11T12:48:16.894Z,2.89
2019-01-11T12:50:47.476Z,2.93
2019-01-11T12:53:18.039Z,2.97
2019-01-11T12:55:48.617Z,3.00
2019-01-11T12:58:19.204Z,3.01
2019-01-11T13:00:49.748Z,3.04
2019-01-11T13:03:20.287Z,3.04
2019-01-11T13:05:50.851Z,3.04
2019-01-11T13:08:21.482Z,2.99
2019-01-11T13:10:52.074Z,3.03
2019-01-11T13:13:22.679Z,3.09
2019-01-11T13:15:53.308Z,3.08
2019-01-11T13:18:23.896Z,3.04
2019-01-11T13:20:54.490Z,3.03
2019-01-11T13:23:25.026Z,3.09
2019-01-11T13:25:55.623Z,3.14
2019-01-11T13:28:26.188Z,3.13
2019-01-11T13:30:56.795Z,3.16
2019-01-11T13:33:27.376Z,3.16
2019-01-11T13:35:57.942Z,3.16
2019-01-11T13:38:28.507Z,3.15
2019-01-11T13:40:59.084Z,3.16
2019-01-11T13:43:29.641Z,3.16
2019-01-11T13:46:00.254Z,3.14
2019-01-11T13:48:33.820Z,3.17
2019-01-11T13:51:04.472Z,3.19
2019-01-11T13:53:35.031Z,3.21
2019-01-11T13:56:05.745Z,3.21
2019-01-11T13:58:36.291Z,3.24
2019-01-11T14:01:06.850Z,3.25
2019-01-11T14:03:37.434Z,3.27
2019-01-11T14:06:08.159Z,3.28
2019-01-11T14:08:38.684Z,3.29
2019-01-11T14:11:09.276Z,3.28
2019-01-11T14:13:41.928Z,3.30
2019-01-11T14:16:12.569Z,3.31
2019-01-11T14:18:43.109Z,3.32
2019-01-11T14:21:13.676Z,3.32
2019-01-11T14:23:44.270Z,3.34
2019-01-11T14:26:14.819Z,3.35
2019-01-11T14:28:48.053Z,3.38
2019-01-11T14:31:18.643Z,3.41
2019-01-11T14:33:49.180Z,3.39
2019-01-11T14:36:19.735Z,3.40
2019-01-11T14:38:50.258Z,3.33
2019-01-11T14:41:21.309Z,3.38
2019-01-11T14:43:51.963Z,3.42
2019-01-11T14:46:22.576Z,3.41
2019-01-11T14:48:53.110Z,3.37
2019-01-11T14:51:23.709Z,3.35
2019-01-11T14:53:54.330Z,3.39
2019-01-11T14:56:24.903Z,3.44
2019-01-11T14:58:55.478Z,3.46
2019-01-11T15:01:26.033Z,3.46
2019-01-11T15:03:56.590Z,3.47
2019-01-11T15:06:27.201Z,3.49
2019-01-11T15:08:57.628Z,3.53
2019-01-11T15:11:28.175Z,3.52
2019-01-11T15:13:58.786Z,3.54
2019-01-11T15:16:29.419Z,3.57
2019-01-11T15:19:00.010Z,3.56
2019-01-11T15:21:30.607Z,3.53
2019-01-11T15:24:01.147Z,3.54
2019-01-11T15:26:31.721Z,3.51
2019-01-11T15:29:05.698Z,3.50
2019-01-11T15:31:36.334Z,3.51
2019-01-11T15:34:06.878Z,3.51
2019-01-11T15:36:37.648Z,3.50
2019-01-11T15:39:10.357Z,3.49
2019-01-11T15:41:43.910Z,3.44
2019-01-11T15:44:14.619Z,3.44
2019-01-11T15:46:45.186Z,3.43
2019-01-11T15:49:15.731Z,3.43
2019-01-11T15:51:46.266Z,3.42
2019-01-11T15:54:16.877Z,3.45
2019-01-11T15:56:47.441Z,3.45
2019-01-11T15:59:18.030Z,3.39
2019-01-11T16:01:54.267Z,3.35
2019-01-11T16:04:24.832Z,3.39
2019-01-11T16:06:55.635Z,3.39
2019-01-11T16:10:08.860Z,3.39
2019-01-11T16:12:53.834Z,3.39
2019-01-11T16:16:16.053Z,3.40
2019-01-11T16:18:46.735Z,3.42
2019-01-11T16:21:17.300Z,3.39
2019-01-11T16:23:47.959Z,3.39
2019-01-11T16:26:18.540Z,3.39
2019-01-11T16:28:49.156Z,3.38
2019-01-11T16:31:21.376Z,3.42
2019-01-11T16:33:51.989Z,3.37
2019-01-11T16:36:22.524Z,3.39
2019-01-11T16:38:53.101Z,3.38
2019-01-11T16:41:23.870Z,3.36
2019-01-11T16:43:54.411Z,3.38
2019-01-11T16:46:24.958Z,3.36
2019-01-11T16:48:55.581Z,3.34
2019-01-11T16:51:26.129Z,3.34
2019-01-11T16:53:56.734Z,3.34
2019-01-11T16:56:27.239Z,3.29
2019-01-11T16:58:57.886Z,3.30
2019-01-11T17:01:28.851Z,3.31
2019-01-11T17:03:59.417Z,3.31
2019-01-11T17:06:29.949Z,3.33
2019-01-11T17:09:01.790Z,3.36
2019-01-11T17:11:32.403Z,3.35
2019-01-11T17:14:02.988Z,3.36
2019-01-11T17:16:33.558Z,3.36
2019-01-11T17:19:04.208Z,3.36
2019-01-11T17:21:34.774Z,3.37
2019-01-11T17:24:05.934Z,3.38
2019-01-11T17:26:36.447Z,3.36
2019-01-11T17:29:06.975Z,3.39
2019-01-11T17:31:37.552Z,3.40
2019-01-11T17:34:08.919Z,3.40
2019-01-11T17:36:39.432Z,3.43
2019-01-11T17:39:10.819Z,3.44
2019-01-11T17:41:41.488Z,3.37
2019-01-11T17:44:12.151Z,3.37
2019-01-11T17:46:43.400Z,3.39
2019-01-11T17:49:15.101Z,3.35
2019-01-11T17:51:45.713Z,3.40
2019-01-11T17:54:16.278Z,3.36
2019-01-11T17:56:47.612Z,3.24
2019-01-11T17:59:19.975Z,3.26
2019-01-11T18:01:52.259Z,3.24
2019-01-11T18:04:23.016Z,3.23
2019-01-11T18:06:53.567Z,3.26
2019-01-11T18:09:24.931Z,3.25
2019-01-11T18:11:55.646Z,3.28
2019-01-11T18:14:26.424Z,3.25
2019-01-11T18:16:56.942Z,3.25
2019-01-11T18:19:27.564Z,3.22
2019-01-11T18:21:58.137Z,3.20
2019-01-11T18:24:28.672Z,3.20
2019-01-11T18:27:01.413Z,3.17
2019-01-11T18:29:32.013Z,3.20
2019-01-11T18:32:02.616Z,3.19
2019-01-11T18:34:33.195Z,3.19
2019-01-11T18:37:03.785Z,3.20
2019-01-11T18:39:35.583Z,3.20
2019-01-11T18:42:06.188Z,3.16
2019-01-11T18:44:36.769Z,3.17
2019-01-11T18:47:08.019Z,3.19
2019-01-11T18:49:38.567Z,3.19
2019-01-11T18:52:09.159Z,3.18
2019-01-11T18:54:39.704Z,3.16
2019-01-11T18:57:10.386Z,3.20
2019-01-11T18:59:43.221Z,3.21
2019-01-11T19:02:13.808Z,3.26
2019-01-11T19:04:44.360Z,3.26
2019-01-11T19:07:18.014Z,3.26
2019-01-11T19:09:48.649Z,3.26
2019-01-11T19:12:23.940Z,3.24
2019-01-11T19:14:54.585Z,3.17
2019-01-11T19:17:25.148Z,3.16
2019-01-11T19:19:55.787Z,3.09
2019-01-11T19:22:27.418Z,3.05
2019-01-11T19:24:59.460Z,3.05
2019-01-11T19:27:30.056Z,3.03
2019-01-11T19:30:00.786Z,2.98
2019-01-11T19:32:31.379Z,3.00
2019-01-11T19:35:01.954Z,3.02
2019-01-11T19:37:34.760Z,3.02
2019-01-11T19:40:07.014Z,2.96
2019-01-11T19:42:37.717Z,2.98
2019-01-11T19:45:10.705Z,2.99
2019-01-11T19:47:44.019Z,3.01
2019-01-11T19:50:20.519Z,2.97
2019-01-11T19:52:51.439Z,2.93
2019-01-11T19:55:23.871Z,2.92
2019-01-11T19:57:54.518Z,2.94
2019-01-11T20:00:29.904Z,2.91
2019-01-11T20:03:00.492Z,2.93
2019-01-11T20:05:31.105Z,2.92
2019-01-11T20:08:01.633Z,2.94
2019-01-11T20:10:34.303Z,2.96
2019-01-11T20:13:04.924Z,3.00
2019-01-11T20:15:35.720Z,3.01
2019-01-11T20:18:07.167Z,3.08
2019-01-11T20:20:37.847Z,3.11
2019-01-11T20:23:09.950Z,3.09
2019-01-11T20:25:40.640Z,3.14
2019-01-11T20:28:11.206Z,3.16
2019-01-11T20:30:44.070Z,3.20
2019-01-11T20:33:14.644Z,3.22
2019-01-11T20:35:48.553Z,3.20
2019-01-11T20:38:19.134Z,3.18
2019-01-11T20:40:49.764Z,3.16
2019-01-11T20:43:20.299Z,3.14
2019-01-11T20:45:50.907Z,3.13
2019-01-11T20:48:21.443Z,3.07
2019-01-11T20:50:54.334Z,3.03
2019-01-11T20:53:24.892Z,3.03
2019-01-11T20:55:55.487Z,3.10
2019-01-11T20:58:26.039Z,3.15
2019-01-11T21:00:58.690Z,3.13
2019-01-11T21:03:29.353Z,3.11
2019-01-11T21:05:59.920Z,3.11
2019-01-11T21:08:30.465Z,3.11
2019-01-11T21:11:01.047Z,3.09
2019-01-11T21:13:31.600Z,3.09
2019-01-11T21:16:02.191Z,3.10
2019-01-11T21:18:32.698Z,3.17
2019-01-11T21:21:03.309Z,3.20
2019-01-11T21:23:33.850Z,3.21
2019-01-11T21:26:04.502Z,3.25
2019-01-11T21:28:35.009Z,3.27
2019-01-11T21:31:05.544Z,3.28
2019-01-11T21:33:36.103Z,3.32
2019-01-11T21:36:06.675Z,3.32
2019-01-11T21:38:37.171Z,3.34
2019-01-11T21:41:07.805Z,3.36
2019-01-11T21:43:38.293Z,3.37
2019-01-11T21:46:08.924Z,3.40
2019-01-11T21:48:39.480Z,3.40
2019-01-11T21:51:10.033Z,3.42
2019-01-11T21:53:40.682Z,3.43
2019-01-11T21:56:11.255Z,3.44
2019-01-11T21:58:41.880Z,3.45
2019-01-11T22:01:12.462Z,3.45
2019-01-11T22:03:43.083Z,3.46
2019-01-11T22:06:13.618Z,3.47
2019-01-11T22:08:44.216Z,3.46
2019-01-11T22:11:17.836Z,3.39
2019-01-11T22:13:48.369Z,3.44
2019-01-11T22:16:18.928Z,3.46
2019-01-11T22:18:49.440Z,3.49
2019-01-11T22:21:20.023Z,3.49
2019-01-11T22:23:50.531Z,3.48
2019-01-11T22:26:21.108Z,3.51
2019-01-11T22:28:51.649Z,3.51
2019-01-11T22:31:22.179Z,3.51
2019-01-11T22:33:52.730Z,3.53
2019-01-11T22:36:23.284Z,3.54
2019-01-11T22:38:53.811Z,3.55
2019-01-11T22:41:24.383Z,3.54
2019-01-11T22:43:54.932Z,3.53
2019-01-11T22:46:25.513Z,3.55
2019-01-11T22:48:56.035Z,3.58
2019-01-11T22:51:26.606Z,3.59
2019-01-11T22:53:57.214Z,3.60
2019-01-11T22:56:27.751Z,3.62
2019-01-11T22:58:58.236Z,3.62
2019-01-11T23:02:12.130Z,3.63
2019-01-11T23:04:42.682Z,3.64
2019-01-11T23:08:00.517Z,3.64
2019-01-11T23:11:26.901Z,3.64
2019-01-11T23:13:57.557Z,3.68
2019-01-11T23:17:16.287Z,3.67
2019-01-11T23:19:48.484Z,3.66
2019-01-11T23:22:19.030Z,3.68
2019-01-11T23:24:49.620Z,3.69
2019-01-11T23:27:20.196Z,3.68
2019-01-11T23:29:50.698Z,3.69
2019-01-11T23:32:21.240Z,3.71
2019-01-11T23:34:51.825Z,3.72
2019-01-11T23:37:22.333Z,3.71
2019-01-11T23:39:52.851Z,3.74
2019-01-11T23:42:23.346Z,3.73
2019-01-11T23:44:53.915Z,3.71
2019-01-11T23:47:24.445Z,3.73
2019-01-11T23:49:54.966Z,3.75
2019-01-11T23:52:25.495Z,3.75
2019-01-11T23:54:56.045Z,3.76
2019-01-11T23:57:26.596Z,3.76
2019-01-11T23:59:57.128Z,3.78
